createdAt,value
2022-12-01T00:00:14.900Z,32.53
2022-12-01T00:02:41.143Z,32.58
2022-12-01T00:05:07.311Z,37.33
2022-12-01T00:07:33.458Z,32.30
2022-12-01T00:09:59.651Z,35.03
2022-12-01T00:12:25.786Z,35.25
2022-12-01T00:14:51.892Z,38.38
2022-12-01T00:17:18.027Z,40.28
2022-12-01T00:19:44.190Z,36.85
2022-12-01T00:22:10.314Z,38.67
2022-12-01T00:24:36.435Z,39.20
2022-12-01T00:27:02.556Z,38.45
2022-12-01T00:29:28.674Z,39.45
2022-12-01T00:31:54.850Z,38.25
2022-12-01T00:34:21.077Z,37.83
2022-12-01T00:36:47.206Z,38.13
2022-12-01T00:39:13.324Z,39.33
2022-12-01T00:41:39.435Z,37.10
2022-12-01T00:44:05.550Z,39.00
2022-12-01T00:46:31.721Z,39.47
2022-12-01T00:48:57.898Z,35.10
2022-12-01T00:51:24.054Z,40.53
2022-12-01T00:53:50.191Z,37.95
2022-12-01T00:56:16.317Z,35.28
2022-12-01T00:58:42.433Z,37.08
2022-12-01T01:01:08.589Z,36.22
2022-12-01T01:03:34.747Z,38.15
2022-12-01T01:06:00.876Z,36.22
2022-12-01T01:08:27.034Z,39.65
2022-12-01T01:10:53.154Z,34.42
2022-12-01T01:13:19.262Z,38.58
2022-12-01T01:15:45.394Z,35.15
2022-12-01T01:18:11.496Z,36.35
2022-12-01T01:20:37.596Z,32.35
2022-12-01T01:23:03.710Z,32.65
2022-12-01T01:25:29.817Z,33.63
2022-12-01T01:27:55.922Z,31.85
2022-12-01T01:30:22.099Z,28.88
2022-12-01T01:32:48.431Z,30.98
2022-12-01T01:35:14.556Z,32.20
2022-12-01T01:37:40.813Z,35.55
2022-12-01T01:40:06.999Z,30.30
2022-12-01T01:42:33.147Z,31.85
2022-12-01T01:44:59.256Z,30.20
2022-12-01T01:47:25.388Z,34.42
2022-12-01T01:49:51.767Z,30.85
2022-12-01T01:52:17.984Z,30.77
2022-12-01T01:54:44.108Z,32.90
2022-12-01T01:57:10.249Z,32.78
2022-12-01T01:59:36.361Z,31.40
2022-12-01T02:02:02.520Z,33.80
2022-12-01T02:04:28.705Z,33.47
2022-12-01T02:06:54.818Z,33.30
2022-12-01T02:09:20.948Z,35.20
2022-12-01T02:11:47.105Z,36.20
2022-12-01T02:14:13.269Z,37.38
2022-12-01T02:16:39.451Z,34.20
2022-12-01T02:19:05.612Z,36.22
2022-12-01T02:21:31.724Z,38.20
2022-12-01T02:23:57.855Z,35.42
2022-12-01T02:26:24.025Z,37.85
2022-12-01T02:28:50.128Z,38.83
2022-12-01T02:31:16.352Z,38.95
2022-12-01T02:33:42.497Z,37.45
2022-12-01T02:36:08.668Z,42.20
2022-12-01T02:38:34.789Z,38.15
2022-12-01T02:41:00.885Z,38.13
2022-12-01T02:43:27.097Z,39.40
2022-12-01T02:45:53.258Z,44.80
2022-12-01T02:48:19.517Z,45.85
2022-12-01T02:50:45.694Z,47.35
2022-12-01T02:53:11.797Z,46.97
2022-12-01T02:55:37.918Z,42.10
2022-12-01T02:58:04.024Z,49.00
2022-12-01T03:00:30.144Z,46.55
2022-12-01T03:02:56.375Z,47.38
2022-12-01T03:05:22.524Z,45.38
2022-12-01T03:07:48.687Z,50.25
2022-12-01T03:10:14.857Z,45.35
2022-12-01T03:12:41.006Z,45.85
2022-12-01T03:15:07.094Z,42.10
2022-12-01T03:17:33.230Z,50.03
2022-12-01T03:19:59.351Z,48.75
2022-12-01T03:22:25.451Z,46.28
2022-12-01T03:24:51.565Z,44.75
2022-12-01T03:27:17.683Z,51.47
2022-12-01T03:29:43.861Z,42.78
2022-12-01T03:32:09.958Z,47.67
2022-12-01T03:34:36.092Z,47.63
2022-12-01T03:37:02.265Z,46.55
2022-12-01T03:39:28.378Z,47.03
2022-12-01T03:41:54.510Z,50.85
2022-12-01T03:44:20.636Z,49.75
2022-12-01T03:46:46.773Z,46.50
2022-12-01T03:49:12.911Z,46.13
2022-12-01T03:51:39.190Z,45.97
2022-12-01T03:54:05.288Z,51.72
2022-12-01T03:56:31.448Z,44.20
2022-12-01T03:58:57.552Z,48.67
2022-12-01T04:01:23.684Z,46.00
2022-12-01T04:03:49.807Z,49.15
2022-12-01T04:06:15.930Z,47.63
2022-12-01T04:08:42.052Z,48.33
2022-12-01T04:11:08.180Z,50.22
2022-12-01T04:13:34.312Z,43.58
2022-12-01T04:16:00.548Z,46.40
2022-12-01T04:18:26.733Z,47.80
2022-12-01T04:20:52.834Z,44.65
2022-12-01T04:23:18.988Z,45.20
2022-12-01T04:25:45.114Z,47.67
2022-12-01T04:28:11.202Z,46.75
2022-12-01T04:30:37.337Z,44.85
2022-12-01T04:33:03.488Z,48.35
2022-12-01T04:35:29.607Z,50.00
2022-12-01T04:37:55.716Z,44.65
2022-12-01T04:40:21.859Z,48.58
2022-12-01T04:42:47.962Z,43.80
2022-12-01T04:45:14.069Z,45.92
2022-12-01T04:47:40.218Z,45.13
2022-12-01T04:50:06.308Z,47.42
2022-12-01T04:52:35.439Z,49.42
2022-12-01T04:55:01.754Z,48.67
2022-12-01T04:57:27.880Z,46.55
2022-12-01T04:59:53.979Z,46.15
2022-12-01T05:02:20.126Z,43.50
2022-12-01T05:04:46.355Z,48.75
2022-12-01T05:07:12.470Z,44.80
2022-12-01T05:09:38.597Z,48.17
2022-12-01T05:12:04.743Z,45.53
2022-12-01T05:14:30.844Z,45.75
2022-12-01T05:16:56.972Z,49.42
2022-12-01T05:19:23.155Z,44.28
2022-12-01T05:21:49.281Z,39.20
2022-12-01T05:24:15.404Z,40.75
2022-12-01T05:26:41.536Z,40.63
2022-12-01T05:29:07.685Z,39.97
2022-12-01T05:31:33.890Z,42.67
2022-12-01T05:34:00.042Z,37.38
2022-12-01T05:36:26.182Z,40.28
2022-12-01T05:38:52.290Z,40.72
2022-12-01T05:41:18.457Z,37.97
2022-12-01T05:43:44.604Z,41.30
2022-12-01T05:46:10.867Z,43.85
2022-12-01T05:48:37.086Z,40.67
2022-12-01T05:51:03.221Z,35.80
2022-12-01T05:53:29.333Z,40.75
2022-12-01T05:55:55.459Z,41.70
2022-12-01T05:58:21.621Z,39.60
2022-12-01T06:00:47.776Z,45.58
2022-12-01T06:03:13.934Z,39.55
2022-12-01T06:05:40.077Z,39.88
2022-12-01T06:08:06.209Z,38.65
2022-12-01T06:10:32.374Z,40.88
2022-12-01T06:12:58.525Z,40.40
2022-12-01T06:15:24.687Z,45.85
2022-12-01T06:17:50.837Z,40.15
2022-12-01T06:20:17.831Z,43.40
2022-12-01T06:22:43.983Z,36.35
2022-12-01T06:25:10.119Z,37.80
2022-12-01T06:27:36.226Z,37.28
2022-12-01T06:30:02.349Z,39.83
2022-12-01T06:32:28.462Z,39.17
2022-12-01T06:34:54.562Z,41.78
2022-12-01T06:37:20.693Z,43.70
2022-12-01T06:39:47.061Z,39.20
2022-12-01T06:42:13.397Z,42.00
2022-12-01T06:44:39.539Z,46.42
2022-12-01T06:47:05.697Z,39.83
2022-12-01T06:49:31.841Z,39.08
2022-12-01T06:51:59.898Z,38.47
2022-12-01T06:54:27.163Z,40.33
2022-12-01T06:56:53.316Z,39.78
2022-12-01T06:59:19.637Z,33.83
2022-12-01T07:01:45.998Z,36.00
2022-12-01T07:04:12.127Z,36.60
2022-12-01T07:06:38.280Z,37.45
2022-12-01T07:09:04.647Z,41.55
2022-12-01T07:11:30.939Z,38.45
2022-12-01T07:13:57.086Z,40.42
2022-12-01T07:16:23.292Z,35.85
2022-12-01T07:18:49.478Z,41.33
2022-12-01T07:21:15.584Z,37.13
2022-12-01T07:23:41.690Z,37.95
2022-12-01T07:26:07.807Z,37.22
2022-12-01T07:28:33.924Z,36.72
2022-12-01T07:31:00.149Z,35.63
2022-12-01T07:33:26.377Z,39.78
2022-12-01T07:35:52.511Z,39.72
2022-12-01T07:38:22.129Z,36.88
2022-12-01T07:40:48.582Z,42.70
2022-12-01T07:43:14.746Z,42.58
2022-12-01T07:45:40.938Z,40.55
2022-12-01T07:48:07.107Z,38.13
2022-12-01T07:50:33.243Z,40.40
2022-12-01T07:52:59.356Z,38.15
2022-12-01T07:55:25.498Z,43.17
2022-12-01T07:57:51.602Z,38.80
2022-12-01T08:00:17.729Z,39.30
2022-12-01T08:02:43.922Z,35.22
2022-12-01T08:05:10.074Z,38.88
2022-12-01T08:07:36.275Z,34.45
2022-12-01T08:10:02.431Z,33.35
2022-12-01T08:12:28.530Z,35.45
2022-12-01T08:14:54.669Z,35.00
2022-12-01T08:17:20.780Z,32.67
2022-12-01T08:19:47.175Z,34.92
2022-12-01T08:22:13.467Z,31.40
2022-12-01T08:24:39.627Z,34.78
2022-12-01T08:27:05.810Z,36.58
2022-12-01T08:29:31.974Z,33.78
2022-12-01T08:31:58.109Z,33.90
2022-12-01T08:34:24.244Z,35.30
2022-12-01T08:36:50.364Z,33.28
2022-12-01T08:39:16.476Z,35.03
2022-12-01T08:41:42.586Z,37.85
2022-12-01T08:44:08.724Z,32.35
2022-12-01T08:46:34.895Z,34.28
2022-12-01T08:49:01.044Z,32.97
2022-12-01T08:51:27.177Z,32.38
2022-12-01T08:53:53.311Z,36.03
2022-12-01T08:56:19.464Z,37.45
2022-12-01T08:58:45.652Z,30.35
2022-12-01T09:01:12.885Z,33.83
2022-12-01T09:03:39.010Z,31.90
2022-12-01T09:06:05.118Z,33.75
2022-12-01T09:08:31.240Z,34.35
2022-12-01T09:10:57.367Z,32.50
2022-12-01T09:13:23.509Z,32.95
2022-12-01T09:15:49.677Z,30.55
2022-12-01T09:18:15.836Z,35.47
2022-12-01T09:20:41.964Z,33.60
2022-12-01T09:23:08.090Z,29.95
2022-12-01T09:25:34.205Z,33.35
2022-12-01T09:28:00.349Z,32.70
2022-12-01T09:30:26.553Z,33.92
2022-12-01T09:32:52.735Z,32.55
2022-12-01T09:35:23.273Z,32.20
2022-12-01T09:37:49.773Z,29.10
2022-12-01T09:40:15.907Z,45.35
2022-12-01T09:42:42.026Z,31.60
2022-12-01T09:45:08.278Z,34.78
2022-12-01T09:47:34.419Z,33.38
2022-12-01T09:50:00.532Z,35.75
2022-12-01T09:52:26.708Z,32.20
2022-12-01T09:54:52.821Z,30.25
2022-12-01T09:57:18.973Z,32.25
2022-12-01T09:59:45.101Z,32.20
2022-12-01T10:02:11.291Z,27.45
2022-12-01T10:04:37.430Z,28.17
2022-12-01T10:07:03.599Z,31.85
2022-12-01T10:09:29.709Z,34.55
2022-12-01T10:11:55.843Z,32.33
2022-12-01T10:14:21.951Z,28.80
2022-12-01T10:16:48.079Z,30.58
2022-12-01T10:19:14.199Z,28.75
2022-12-01T10:21:40.328Z,30.15
2022-12-01T10:24:06.442Z,32.60
2022-12-01T10:26:32.581Z,29.35
2022-12-01T10:28:58.723Z,31.88
2022-12-01T10:31:24.945Z,28.73
2022-12-01T10:33:51.119Z,30.13
2022-12-01T10:36:17.224Z,31.95
2022-12-01T10:38:43.365Z,28.45
2022-12-01T10:41:09.478Z,29.35
2022-12-01T10:43:35.630Z,32.72
2022-12-01T10:46:01.762Z,34.22
2022-12-01T10:48:27.868Z,35.65
2022-12-01T10:50:54.053Z,34.03
2022-12-01T10:53:20.164Z,31.73
2022-12-01T10:55:48.112Z,29.70
2022-12-01T10:58:14.388Z,28.45
2022-12-01T11:00:59.131Z,35.80
2022-12-01T11:03:26.278Z,30.35
2022-12-01T11:05:52.579Z,30.95
2022-12-01T11:08:18.719Z,29.30
2022-12-01T11:10:44.811Z,28.48
2022-12-01T11:13:10.939Z,29.25
2022-12-01T11:15:37.084Z,34.33
2022-12-01T11:18:03.179Z,27.13
2022-12-01T11:20:29.370Z,25.60
2022-12-01T11:22:55.503Z,25.58
2022-12-01T11:25:21.708Z,34.53
2022-12-01T11:27:47.850Z,28.38
2022-12-01T11:30:14.140Z,29.20
2022-12-01T11:32:40.295Z,32.88
2022-12-01T11:35:06.413Z,30.52
2022-12-01T11:37:32.543Z,28.77
2022-12-01T11:39:58.653Z,32.38
2022-12-01T11:42:24.784Z,29.13
2022-12-01T11:44:52.043Z,34.80
2022-12-01T11:47:23.632Z,32.28
2022-12-01T11:49:50.920Z,28.90
2022-12-01T11:52:17.129Z,32.15
2022-12-01T11:54:43.548Z,28.00
2022-12-01T11:58:12.587Z,37.65
2022-12-01T11:59:55.935Z,34.03
2022-12-01T12:02:22.088Z,31.55
2022-12-01T12:04:48.257Z,34.25
2022-12-01T12:07:14.363Z,29.38
2022-12-01T12:09:45.092Z,29.88
2022-12-01T12:12:11.482Z,36.85
2022-12-01T12:14:37.584Z,26.70
2022-12-01T12:17:03.728Z,28.13
2022-12-01T12:19:34.326Z,33.47
2022-12-01T12:22:11.539Z,33.03
2022-12-01T12:24:37.636Z,27.25
2022-12-01T12:27:03.746Z,34.00
2022-12-01T12:29:29.852Z,28.77
2022-12-01T12:31:55.991Z,31.08
2022-12-01T12:34:22.186Z,24.90
2022-12-01T12:36:48.302Z,32.20
2022-12-01T12:39:16.759Z,28.45
2022-12-01T12:41:43.264Z,26.92
2022-12-01T12:44:09.378Z,30.98
2022-12-01T12:46:35.589Z,30.77
2022-12-01T12:49:19.344Z,26.02
2022-12-01T12:51:46.485Z,28.58
2022-12-01T12:54:12.694Z,25.17
2022-12-01T12:56:38.857Z,27.33
2022-12-01T12:59:05.027Z,25.88
2022-12-01T13:01:31.169Z,27.13
2022-12-01T13:03:57.390Z,25.20
2022-12-01T13:06:23.510Z,28.92
2022-12-01T13:08:49.640Z,23.98
2022-12-01T13:11:15.748Z,28.77
2022-12-01T13:13:41.868Z,29.45
2022-12-01T13:16:07.982Z,29.70
2022-12-01T13:18:34.131Z,29.98
2022-12-01T13:21:00.258Z,28.08
2022-12-01T13:23:26.357Z,25.52
2022-12-01T13:25:52.514Z,28.30
2022-12-01T13:28:18.781Z,27.23
2022-12-01T13:30:45.040Z,28.38
2022-12-01T13:33:11.209Z,30.42
2022-12-01T13:35:37.308Z,28.75
2022-12-01T13:38:03.446Z,26.63
2022-12-01T13:40:29.575Z,28.27
2022-12-01T13:42:55.750Z,32.00
2022-12-01T13:45:21.917Z,31.40
2022-12-01T13:47:48.025Z,25.92
2022-12-01T13:50:14.192Z,29.23
2022-12-01T13:52:40.330Z,29.83
2022-12-01T13:55:06.467Z,27.23
2022-12-01T13:57:32.600Z,26.63
2022-12-01T13:59:58.718Z,26.65
2022-12-01T14:02:25.014Z,29.70
2022-12-01T14:04:51.513Z,34.15
2022-12-01T14:07:17.765Z,35.65
2022-12-01T14:09:43.903Z,26.45
2022-12-01T14:12:10.007Z,27.85
2022-12-01T14:14:36.181Z,24.45
2022-12-01T14:17:02.397Z,27.90
2022-12-01T14:19:28.526Z,26.30
2022-12-01T14:21:54.685Z,28.25
2022-12-01T14:24:20.818Z,24.88
2022-12-01T14:26:46.973Z,28.38
2022-12-01T14:29:13.100Z,38.67
2022-12-01T14:31:39.283Z,30.13
2022-12-01T14:34:05.489Z,28.38
2022-12-01T14:36:31.685Z,25.77
2022-12-01T14:38:57.835Z,29.20
2022-12-01T14:41:23.974Z,24.88
2022-12-01T14:43:50.110Z,26.75
2022-12-01T14:46:16.534Z,26.60
2022-12-01T14:48:42.664Z,28.88
2022-12-01T14:51:08.791Z,28.77
2022-12-01T14:53:34.921Z,29.23
2022-12-01T14:56:01.039Z,28.60
2022-12-01T14:58:27.171Z,27.45
2022-12-01T15:00:53.312Z,26.75
2022-12-01T15:03:19.544Z,23.52
2022-12-01T15:05:45.681Z,22.60
2022-12-01T15:08:39.646Z,28.65
2022-12-01T15:10:57.901Z,26.42
2022-12-01T15:13:24.077Z,26.10
2022-12-01T15:15:50.181Z,27.23
2022-12-01T15:18:16.336Z,26.20
2022-12-01T15:20:47.576Z,27.05
2022-12-01T15:23:13.999Z,24.90
2022-12-01T15:25:40.092Z,26.27
2022-12-01T15:28:06.238Z,29.38
2022-12-01T15:30:32.333Z,25.77
2022-12-01T15:32:58.483Z,28.33
2022-12-01T15:35:24.596Z,25.30
2022-12-01T15:37:50.742Z,27.63
2022-12-01T15:43:03.015Z,28.08
2022-12-01T15:45:29.217Z,25.80
2022-12-01T15:47:55.400Z,27.65
2022-12-01T15:50:21.540Z,27.08
2022-12-01T15:52:47.658Z,28.00
2022-12-01T15:55:13.757Z,29.02
2022-12-01T15:57:39.884Z,26.55
2022-12-01T16:00:06.060Z,31.83
2022-12-01T16:02:32.272Z,30.10
2022-12-01T16:04:58.515Z,29.63
2022-12-01T16:07:25.113Z,35.03
2022-12-01T16:09:52.508Z,30.30
2022-12-01T16:12:18.643Z,28.67
2022-12-01T16:14:44.785Z,26.02
2022-12-01T16:17:11.127Z,25.50
2022-12-01T16:19:37.376Z,26.17
2022-12-01T16:22:03.596Z,26.30
2022-12-01T16:24:29.731Z,25.38
2022-12-01T16:26:55.866Z,27.98
2022-12-01T16:29:21.991Z,29.23
2022-12-01T16:32:12.728Z,27.17
2022-12-01T16:34:45.902Z,28.83
2022-12-01T16:37:12.790Z,30.75
2022-12-01T16:39:39.025Z,26.83
2022-12-01T16:42:05.252Z,38.60
2022-12-01T16:44:31.416Z,27.08
2022-12-01T16:46:57.568Z,29.15
2022-12-01T16:49:23.700Z,27.67
2022-12-01T16:51:55.800Z,29.75
2022-12-01T16:54:23.119Z,25.93
2022-12-01T16:56:49.257Z,31.05
2022-12-01T16:59:15.409Z,30.88
2022-12-01T17:01:41.615Z,31.55
2022-12-01T17:04:08.029Z,32.38
2022-12-01T17:06:34.209Z,26.63
2022-12-01T17:09:00.345Z,26.88
2022-12-01T17:11:26.497Z,25.92
2022-12-01T17:13:52.624Z,30.23
2022-12-01T17:16:19.065Z,29.00
2022-12-01T17:18:45.343Z,31.00
2022-12-01T17:21:11.537Z,31.30
2022-12-01T17:23:37.659Z,30.17
2022-12-01T17:26:03.769Z,29.42
2022-12-01T17:28:29.896Z,28.30
2022-12-01T17:30:56.128Z,27.70
2022-12-01T17:33:22.261Z,27.58
2022-12-01T17:35:48.410Z,27.60
2022-12-01T17:38:14.523Z,26.98
2022-12-01T17:40:40.634Z,28.70
2022-12-01T17:43:06.760Z,26.88
2022-12-01T17:45:32.940Z,26.00
2022-12-01T17:47:59.070Z,31.02
2022-12-01T17:50:25.198Z,23.33
2022-12-01T17:52:51.347Z,25.90
2022-12-01T17:55:17.482Z,28.25
2022-12-01T17:57:43.626Z,25.60
2022-12-01T18:00:09.768Z,34.17
2022-12-01T18:02:35.958Z,28.30
2022-12-01T18:05:02.163Z,25.02
2022-12-01T18:07:28.381Z,27.48
2022-12-01T18:09:54.705Z,24.77
2022-12-01T18:12:20.827Z,27.35
2022-12-01T18:14:47.205Z,29.20
2022-12-01T18:17:13.536Z,28.73
2022-12-01T18:19:39.641Z,31.75
2022-12-01T18:22:05.771Z,26.15
2022-12-01T18:24:31.889Z,27.15
2022-12-01T18:26:58.034Z,26.02
2022-12-01T18:29:24.174Z,28.88
2022-12-01T18:31:50.350Z,27.15
2022-12-01T18:34:16.508Z,27.70
2022-12-01T18:36:42.641Z,30.48
2022-12-01T18:39:08.775Z,29.85
2022-12-01T18:41:34.899Z,26.38
2022-12-01T18:44:01.046Z,34.78
2022-12-01T18:46:27.290Z,25.65
2022-12-01T18:48:53.608Z,29.10
2022-12-01T18:51:19.740Z,28.77
2022-12-01T18:53:45.902Z,30.60
2022-12-01T18:56:12.238Z,29.15
2022-12-01T18:58:38.388Z,30.33
2022-12-01T19:01:04.545Z,26.50
2022-12-01T19:03:30.712Z,28.45
2022-12-01T19:05:56.855Z,28.55
2022-12-01T19:08:23.017Z,26.42
2022-12-01T19:10:49.178Z,26.13
2022-12-01T19:13:15.314Z,31.52
2022-12-01T19:15:41.449Z,28.67
2022-12-01T19:18:07.616Z,29.15
2022-12-01T19:20:33.757Z,31.55
2022-12-01T19:23:00.138Z,25.65
2022-12-01T19:25:26.268Z,28.33
2022-12-01T19:27:52.404Z,28.48
2022-12-01T19:30:18.512Z,28.20
2022-12-01T19:32:44.881Z,28.90
2022-12-01T19:35:11.011Z,29.08
2022-12-01T19:37:37.115Z,26.27
2022-12-01T19:40:03.265Z,28.25
2022-12-01T19:42:29.520Z,26.95
2022-12-01T19:44:55.619Z,27.67
2022-12-01T19:47:22.510Z,26.27
2022-12-01T19:49:48.804Z,29.48
2022-12-01T19:52:14.928Z,28.77
2022-12-01T19:54:41.040Z,27.90
2022-12-01T19:57:07.229Z,28.70
2022-12-01T19:59:33.345Z,31.00
2022-12-01T20:01:59.519Z,30.65
2022-12-01T20:04:25.731Z,30.80
2022-12-01T20:06:51.837Z,31.42
2022-12-01T20:09:17.965Z,32.90
2022-12-01T20:11:44.085Z,29.67
2022-12-01T20:14:10.308Z,26.83
2022-12-01T20:16:36.493Z,29.48
2022-12-01T20:19:02.753Z,28.20
2022-12-01T20:21:28.904Z,29.02
2022-12-01T20:23:55.041Z,27.27
2022-12-01T20:26:23.016Z,28.83
2022-12-01T20:28:52.369Z,27.08
2022-12-01T20:31:18.556Z,30.08
2022-12-01T20:33:44.700Z,30.08
2022-12-01T20:36:10.855Z,29.42
2022-12-01T20:38:36.998Z,29.40
2022-12-01T20:41:03.150Z,33.97
2022-12-01T20:43:29.327Z,26.60
2022-12-01T20:45:55.534Z,30.10
2022-12-01T20:48:21.733Z,29.92
2022-12-01T20:50:47.872Z,27.02
2022-12-01T20:53:13.972Z,29.13
2022-12-01T20:55:40.120Z,28.63
2022-12-01T20:58:06.252Z,28.48
2022-12-01T21:00:32.399Z,31.70
2022-12-01T21:02:58.567Z,30.42
2022-12-01T21:05:24.675Z,31.15
2022-12-01T21:07:50.862Z,25.35
2022-12-01T21:10:19.969Z,31.27
2022-12-01T21:12:46.502Z,32.13
2022-12-01T21:15:12.628Z,29.52
2022-12-01T21:17:38.736Z,32.03
2022-12-01T21:20:04.871Z,29.98
2022-12-01T21:22:30.979Z,27.02
2022-12-01T21:24:57.110Z,35.78
2022-12-01T21:27:23.231Z,27.58
2022-12-01T21:29:49.385Z,30.17
2022-12-01T21:32:15.539Z,28.50
2022-12-01T21:34:41.745Z,29.77
2022-12-01T21:37:07.890Z,31.83
2022-12-01T21:39:34.039Z,30.75
2022-12-01T21:42:00.151Z,32.05
2022-12-01T21:44:26.278Z,32.25
2022-12-01T21:46:52.427Z,29.58
2022-12-01T21:49:18.553Z,27.75
2022-12-01T21:51:44.660Z,31.42
2022-12-01T21:54:10.775Z,29.17
2022-12-01T21:56:36.887Z,28.98
2022-12-01T21:59:03.001Z,30.23
2022-12-01T22:01:29.190Z,33.08
2022-12-01T22:04:00.552Z,28.00
2022-12-01T22:06:30.393Z,29.17
2022-12-01T22:08:56.989Z,27.95
2022-12-01T22:11:23.091Z,27.52
2022-12-01T22:13:49.207Z,30.65
2022-12-01T22:16:15.350Z,31.35
2022-12-01T22:18:41.500Z,34.08
2022-12-01T22:21:07.625Z,29.40
2022-12-01T22:23:33.734Z,33.08
2022-12-01T22:25:59.967Z,27.38
2022-12-01T22:28:26.091Z,28.02
2022-12-01T22:30:52.297Z,31.52
2022-12-01T22:33:18.483Z,31.00
2022-12-01T22:35:44.655Z,36.63
2022-12-01T22:38:10.820Z,31.65
2022-12-01T22:40:36.976Z,30.67
2022-12-01T22:43:03.103Z,30.17
2022-12-01T22:45:29.210Z,28.10
2022-12-01T22:47:55.327Z,32.47
2022-12-01T22:50:21.449Z,32.42
2022-12-01T22:52:47.568Z,30.25
2022-12-01T22:55:13.671Z,30.75
2022-12-01T22:57:39.789Z,29.20
2022-12-01T23:00:08.145Z,30.17
2022-12-01T23:02:34.482Z,30.58
2022-12-01T23:05:00.673Z,33.08
2022-12-01T23:07:26.814Z,31.02
2022-12-01T23:09:52.974Z,32.85
2022-12-01T23:12:19.104Z,26.92
2022-12-01T23:14:45.233Z,33.70
2022-12-01T23:17:11.336Z,30.95
2022-12-01T23:19:37.447Z,35.67
2022-12-01T23:22:03.632Z,30.35
2022-12-01T23:24:33.666Z,33.78
2022-12-01T23:27:00.222Z,35.78
2022-12-01T23:29:26.400Z,33.65
2022-12-01T23:31:52.591Z,35.38
2022-12-01T23:34:18.787Z,32.45
2022-12-01T23:36:44.927Z,35.33
2022-12-01T23:39:11.029Z,33.55
2022-12-01T23:41:37.186Z,30.33
2022-12-01T23:44:03.287Z,32.97
2022-12-01T23:46:29.445Z,34.13
2022-12-01T23:48:55.617Z,31.42
2022-12-01T23:51:21.767Z,30.52
2022-12-01T23:53:47.876Z,32.13
2022-12-01T23:56:13.985Z,32.50
2022-12-01T23:58:40.104Z,35.92
